Time;durP1;ratioP1;P1;durP2;ratioP2;P2;SDS_P1;SDS_P2;PMS_P1;PMS_P2;Temp;Humidity;BMP_temperature;BMP_pressure;BME280_temperature;BME280_humidity;BME280_pressure;Samples;Min_cycle;Max_cycle;Signal;HPM_P1;HPM_P2
2022/03/25 00:01:18;;;;;;;1.20;1.20;;;;;;;;;;1855871;76;26790;-48
2022/03/25 00:03:45;;;;;;;1.27;1.27;;;;;;;;;;1858123;75;26326;-47
2022/03/25 00:06:13;;;;;;;1.00;1.00;;;;;;;;;;1859819;75;26275;-49
2022/03/25 00:08:40;;;;;;;1.27;1.27;;;;;;;;;;1859471;75;26218;-49
2022/03/25 00:11:07;;;;;;;1.37;1.27;;;;;;;;;;1857398;75;26739;-46
2022/03/25 00:13:35;;;;;;;1.02;1.02;;;;;;;;;;1856325;75;27359;-48
2022/03/25 00:16:03;;;;;;;1.47;1.40;;;;;;;;;;1857038;76;26321;-48
2022/03/25 00:18:31;;;;;;;1.30;1.30;;;;;;;;;;1856249;75;26363;-48
2022/03/25 00:20:58;;;;;;;1.20;1.20;;;;;;;;;;1858636;76;26314;-46
2022/03/25 00:23:25;;;;;;;1.20;1.20;;;;;;;;;;1858590;76;26271;-45
2022/03/25 00:25:53;;;;;;;1.47;1.37;;;;;;;;;;1852702;76;26286;-47
2022/03/25 00:28:24;;;;;;;1.35;1.35;;;;;;;;;;1858739;76;26319;-46
2022/03/25 00:30:49;;;;;;;1.35;1.35;;;;;;;;;;1856139;76;26350;-49
2022/03/25 00:33:17;;;;;;;1.10;1.10;;;;;;;;;;1855023;75;26338;-50
2022/03/25 00:35:44;;;;;;;1.45;1.40;;;;;;;;;;1857894;75;26865;-47
2022/03/25 00:38:12;;;;;;;1.05;1.05;;;;;;;;;;1861162;75;26798;-47
2022/03/25 00:40:39;;;;;;;1.10;1.10;;;;;;;;;;1861368;76;26264;-49
2022/03/25 00:43:09;;;;;;;1.30;1.30;;;;;;;;;;1854478;76;26361;-50
2022/03/25 00:45:37;;;;;;;1.30;1.30;;;;;;;;;;1855141;75;26321;-44
2022/03/25 00:48:05;;;;;;;1.37;1.37;;;;;;;;;;1868286;75;26375;-46
2022/03/25 00:50:32;;;;;;;1.20;1.20;;;;;;;;;;1863887;75;26294;-46
2022/03/25 00:52:59;;;;;;;1.10;1.10;;;;;;;;;;1865631;76;26322;-45
2022/03/25 00:55:26;;;;;;;1.20;1.20;;;;;;;;;;1861574;75;26288;-45
2022/03/25 00:57:54;;;;;;;1.20;1.20;;;;;;;;;;1863021;76;26352;-45
2022/03/25 01:00:22;;;;;;;1.37;1.32;;;;;;;;;;1860002;76;26427;-46
2022/03/25 01:02:49;;;;;;;1.30;1.30;;;;;;;;;;1854249;76;26331;-47
2022/03/25 01:05:21;;;;;;;1.25;1.25;;;;;;;;;;1847692;76;26284;-46
2022/03/25 01:07:45;;;;;;;1.17;1.17;;;;;;;;;;1854349;76;26271;-44
2022/03/25 01:10:13;;;;;;;1.50;1.40;;;;;;;;;;1850708;76;26286;-49
2022/03/25 01:12:41;;;;;;;1.15;1.15;;;;;;;;;;1858137;76;26462;-48
2022/03/25 01:15:09;;;;;;;1.42;1.30;;;;;;;;;;1859949;76;26261;-50
2022/03/25 01:17:37;;;;;;;1.30;1.30;;;;;;;;;;1862762;76;26266;-48
2022/03/25 01:20:05;;;;;;;1.20;1.20;;;;;;;;;;1872319;76;26276;-47
2022/03/25 01:22:32;;;;;;;1.30;1.30;;;;;;;;;;1863816;76;26776;-47
2022/03/25 01:24:59;;;;;;;1.27;1.17;;;;;;;;;;1855014;76;26327;-46
2022/03/25 01:27:27;;;;;;;1.40;1.30;;;;;;;;;;1855494;76;27442;-47
2022/03/25 01:29:54;;;;;;;1.20;1.20;;;;;;;;;;1864822;76;26279;-46
2022/03/25 01:32:23;;;;;;;1.47;1.37;;;;;;;;;;1866711;76;26802;-48
2022/03/25 01:34:51;;;;;;;1.10;1.10;;;;;;;;;;1862324;76;26283;-49
2022/03/25 01:37:18;;;;;;;1.47;1.47;;;;;;;;;;1874408;76;26835;-45
2022/03/25 01:39:45;;;;;;;1.37;1.37;;;;;;;;;;1869315;76;26702;-48
2022/03/25 01:42:12;;;;;;;1.30;1.30;;;;;;;;;;1865433;76;26269;-46
2022/03/25 01:44:40;;;;;;;1.37;1.22;;;;;;;;;;1870113;76;26334;-49
2022/03/25 01:47:08;;;;;;;1.42;1.32;;;;;;;;;;1867680;76;26255;-48
2022/03/25 01:49:36;;;;;;;2.15;1.30;;;;;;;;;;1868452;76;26293;-47
2022/03/25 01:52:03;;;;;;;1.25;1.17;;;;;;;;;;1866572;76;26304;-46
2022/03/25 01:54:32;;;;;;;1.45;1.37;;;;;;;;;;1858756;76;26730;-47
2022/03/25 01:57:01;;;;;;;1.40;1.40;;;;;;;;;;1854399;76;26288;-47
2022/03/25 01:59:28;;;;;;;1.50;1.50;;;;;;;;;;1855269;76;26333;-45
2022/03/25 02:01:56;;;;;;;1.40;1.30;;;;;;;;;;1855318;76;26373;-45
2022/03/25 02:04:24;;;;;;;2.27;1.40;;;;;;;;;;1851965;76;26366;-48
2022/03/25 02:06:52;;;;;;;2.85;1.20;;;;;;;;;;1852005;76;26922;-45
2022/03/25 02:09:20;;;;;;;1.70;1.60;;;;;;;;;;1851166;76;26232;-48
2022/03/25 02:11:47;;;;;;;1.50;1.40;;;;;;;;;;1853715;76;27244;-46
2022/03/25 02:14:14;;;;;;;1.12;1.12;;;;;;;;;;1850188;76;26353;-47
2022/03/25 02:16:42;;;;;;;1.40;1.40;;;;;;;;;;1858248;76;26355;-49
2022/03/25 02:19:11;;;;;;;1.30;1.30;;;;;;;;;;1855879;76;26735;-46
2022/03/25 02:21:39;;;;;;;1.30;1.30;;;;;;;;;;1854195;76;26657;-47
2022/03/25 02:24:07;;;;;;;1.32;1.32;;;;;;;;;;1858858;76;26233;-49
2022/03/25 02:26:36;;;;;;;1.20;1.20;;;;;;;;;;1869822;76;26549;-46
2022/03/25 02:29:05;;;;;;;1.50;1.40;;;;;;;;;;1873558;76;26724;-48
2022/03/25 02:31:32;;;;;;;1.30;1.20;;;;;;;;;;1863721;76;26754;-48
2022/03/25 02:34:03;;;;;;;1.35;1.35;;;;;;;;;;1871361;76;26772;-48
2022/03/25 02:36:41;;;;;;;1.30;1.30;;;;;;;;;;1860239;76;26473;-49
2022/03/25 02:39:09;;;;;;;1.30;1.30;;;;;;;;;;1870076;76;26267;-50
2022/03/25 02:41:36;;;;;;;1.50;1.40;;;;;;;;;;1859793;76;26668;-45
2022/03/25 02:44:04;;;;;;;1.50;1.40;;;;;;;;;;1862286;76;26256;-49
2022/03/25 02:46:32;;;;;;;1.20;1.20;;;;;;;;;;1874206;76;26299;-45
2022/03/25 02:48:59;;;;;;;1.20;1.20;;;;;;;;;;1868130;76;26252;-48
2022/03/25 02:51:27;;;;;;;1.45;1.40;;;;;;;;;;1867418;76;26760;-48
2022/03/25 02:53:55;;;;;;;1.40;1.40;;;;;;;;;;1866655;76;26260;-47
2022/03/25 02:56:24;;;;;;;1.32;1.22;;;;;;;;;;1869477;76;26323;-49
2022/03/25 02:58:53;;;;;;;1.42;1.32;;;;;;;;;;1872066;76;26782;-47
2022/03/25 03:01:20;;;;;;;1.20;1.20;;;;;;;;;;1858280;76;26338;-47
2022/03/25 03:03:48;;;;;;;1.25;1.25;;;;;;;;;;1846370;76;26366;-46
2022/03/25 03:06:15;;;;;;;1.35;1.35;;;;;;;;;;1845381;76;26276;-48
2022/03/25 03:08:42;;;;;;;1.40;1.40;;;;;;;;;;1844486;76;26378;-48
2022/03/25 03:11:11;;;;;;;1.30;1.30;;;;;;;;;;1842067;76;26295;-50
2022/03/25 03:13:39;;;;;;;1.40;1.40;;;;;;;;;;1836875;76;26825;-46
2022/03/25 03:16:06;;;;;;;1.50;1.50;;;;;;;;;;1841070;76;26263;-51
2022/03/25 03:18:34;;;;;;;1.30;1.30;;;;;;;;;;1833996;76;25753;-48
2022/03/25 03:21:01;;;;;;;1.67;1.65;;;;;;;;;;1846064;76;26310;-45
2022/03/25 03:23:28;;;;;;;1.40;1.40;;;;;;;;;;1848186;76;26746;-48
2022/03/25 03:25:55;;;;;;;1.98;1.30;;;;;;;;;;1844280;76;26760;-47
2022/03/25 03:28:23;;;;;;;2.37;1.40;;;;;;;;;;1851033;76;27149;-45
2022/03/25 03:30:50;;;;;;;1.20;1.20;;;;;;;;;;1839008;76;26287;-46
2022/03/25 03:33:18;;;;;;;1.40;1.40;;;;;;;;;;1835371;76;26269;-47
2022/03/25 03:35:45;;;;;;;1.30;1.30;;;;;;;;;;1837562;76;26280;-47
2022/03/25 03:38:13;;;;;;;2.20;2.02;;;;;;;;;;1843897;76;26269;-45
2022/03/25 03:40:40;;;;;;;1.50;1.50;;;;;;;;;;1842265;76;26775;-49
2022/03/25 03:43:08;;;;;;;1.57;1.57;;;;;;;;;;1840922;76;26280;-47
2022/03/25 03:45:35;;;;;;;1.40;1.40;;;;;;;;;;1838693;76;26389;-46
2022/03/25 03:48:02;;;;;;;1.65;1.65;;;;;;;;;;1839757;76;26333;-48
2022/03/25 03:50:30;;;;;;;1.50;1.40;;;;;;;;;;1839015;77;26401;-45
2022/03/25 03:52:57;;;;;;;1.67;1.60;;;;;;;;;;1842354;76;26292;-49
2022/03/25 03:55:25;;;;;;;1.47;1.40;;;;;;;;;;1843042;76;26270;-48
2022/03/25 03:57:52;;;;;;;1.50;1.50;;;;;;;;;;1843760;76;26310;-50
2022/03/25 04:00:20;;;;;;;1.55;1.40;;;;;;;;;;1848443;76;26209;-47
2022/03/25 04:02:48;;;;;;;1.50;1.50;;;;;;;;;;1850162;76;26312;-45
2022/03/25 04:05:15;;;;;;;1.40;1.40;;;;;;;;;;1853642;76;26311;-48
2022/03/25 04:07:48;;;;;;;1.17;1.17;;;;;;;;;;1857942;76;26384;-46
2022/03/25 04:10:17;;;;;;;1.30;1.30;;;;;;;;;;1856298;76;26323;-47
2022/03/25 04:12:44;;;;;;;1.40;1.40;;;;;;;;;;1850058;76;26211;-45
2022/03/25 04:15:12;;;;;;;1.57;1.50;;;;;;;;;;1856596;76;26275;-45
2022/03/25 04:17:41;;;;;;;1.42;1.40;;;;;;;;;;1857915;76;26353;-44
2022/03/25 04:20:09;;;;;;;1.52;1.50;;;;;;;;;;1859603;76;26262;-45
2022/03/25 04:22:36;;;;;;;1.30;1.30;;;;;;;;;;1862836;76;26699;-49
2022/03/25 04:25:07;;;;;;;1.55;1.50;;;;;;;;;;1845476;76;26265;-46
2022/03/25 04:27:34;;;;;;;1.50;1.50;;;;;;;;;;1860288;76;26286;-48
2022/03/25 04:30:01;;;;;;;1.52;1.40;;;;;;;;;;1856104;76;26275;-45
2022/03/25 04:32:29;;;;;;;1.30;1.30;;;;;;;;;;1852261;76;26338;-47
2022/03/25 04:34:57;;;;;;;1.40;1.40;;;;;;;;;;1853842;76;26274;-48
2022/03/25 04:37:24;;;;;;;1.40;1.40;;;;;;;;;;1852688;76;26318;-47
2022/03/25 04:39:51;;;;;;;1.37;1.37;;;;;;;;;;1854835;76;26806;-45
2022/03/25 04:42:19;;;;;;;1.45;1.45;;;;;;;;;;1851109;76;26821;-48
2022/03/25 04:44:46;;;;;;;1.65;1.40;;;;;;;;;;1852733;76;26360;-45
2022/03/25 04:47:13;;;;;;;1.80;1.70;;;;;;;;;;1851119;76;26256;-48
2022/03/25 04:49:41;;;;;;;1.45;1.45;;;;;;;;;;1852067;76;26306;-46
2022/03/25 04:52:09;;;;;;;1.30;1.30;;;;;;;;;;1853294;76;26778;-46
2022/03/25 04:54:36;;;;;;;2.15;1.55;;;;;;;;;;1863854;76;26547;-47
2022/03/25 04:57:04;;;;;;;1.40;1.40;;;;;;;;;;1870429;76;26823;-49
2022/03/25 04:59:32;;;;;;;1.50;1.50;;;;;;;;;;1864179;76;26303;-47
2022/03/25 05:01:59;;;;;;;1.50;1.50;;;;;;;;;;1845488;76;26409;-49
2022/03/25 05:04:26;;;;;;;1.40;1.40;;;;;;;;;;1801084;78;26393;-47
2022/03/25 05:06:53;;;;;;;1.50;1.50;;;;;;;;;;1801114;78;26290;-48
2022/03/25 05:09:21;;;;;;;1.60;1.60;;;;;;;;;;1798813;78;26322;-45
2022/03/25 05:11:48;;;;;;;1.67;1.57;;;;;;;;;;1801516;78;26294;-47
2022/03/25 05:14:16;;;;;;;1.50;1.50;;;;;;;;;;1812929;78;26360;-46
2022/03/25 05:16:43;;;;;;;1.37;1.37;;;;;;;;;;1812837;78;26576;-49
2022/03/25 05:19:10;;;;;;;1.32;1.32;;;;;;;;;;1805417;77;26322;-46
2022/03/25 05:21:38;;;;;;;1.20;1.20;;;;;;;;;;1810844;78;26263;-46
2022/03/25 05:24:05;;;;;;;1.42;1.42;;;;;;;;;;1804861;78;26264;-49
2022/03/25 05:26:33;;;;;;;1.87;1.77;;;;;;;;;;1809165;78;26621;-44
2022/03/25 05:29:00;;;;;;;1.65;1.55;;;;;;;;;;1803426;79;26362;-45
2022/03/25 05:31:27;;;;;;;1.50;1.50;;;;;;;;;;1802070;79;26276;-46
2022/03/25 05:33:54;;;;;;;1.60;1.60;;;;;;;;;;1808185;78;26291;-46
2022/03/25 05:36:22;;;;;;;1.50;1.47;;;;;;;;;;1802337;77;26349;-50
2022/03/25 05:38:51;;;;;;;1.40;1.40;;;;;;;;;;1808931;79;26314;-51
2022/03/25 05:41:19;;;;;;;1.30;1.30;;;;;;;;;;1801132;77;26346;-49
2022/03/25 05:43:46;;;;;;;1.50;1.50;;;;;;;;;;1802400;79;26275;-47
2022/03/25 05:46:14;;;;;;;1.60;1.50;;;;;;;;;;1809352;79;27646;-45
2022/03/25 05:48:41;;;;;;;1.70;1.60;;;;;;;;;;1810018;78;26359;-48
2022/03/25 05:51:10;;;;;;;1.50;1.42;;;;;;;;;;1812141;78;26332;-46
2022/03/25 05:53:38;;;;;;;2.05;1.82;;;;;;;;;;1813263;78;26261;-49
2022/03/25 05:56:06;;;;;;;3.47;3.12;;;;;;;;;;1809673;79;26765;-48
2022/03/25 05:58:35;;;;;;;4.50;2.52;;;;;;;;;;1804927;78;26785;-47
2022/03/25 06:01:02;;;;;;;5.12;2.50;;;;;;;;;;1803790;78;26930;-47
2022/03/25 06:03:31;;;;;;;3.47;2.10;;;;;;;;;;1832717;76;26417;-46
2022/03/25 06:05:59;;;;;;;2.05;1.95;;;;;;;;;;1845651;76;26692;-47
2022/03/25 06:08:26;;;;;;;3.30;2.27;;;;;;;;;;1846100;76;26265;-51
2022/03/25 06:10:55;;;;;;;2.35;2.20;;;;;;;;;;1846871;76;26893;-47
2022/03/25 06:13:22;;;;;;;5.65;2.20;;;;;;;;;;1854833;76;26362;-47
2022/03/25 06:15:50;;;;;;;2.27;2.02;;;;;;;;;;1863616;76;26326;-48
2022/03/25 06:18:17;;;;;;;4.62;2.40;;;;;;;;;;1854626;76;26292;-50
2022/03/25 06:20:45;;;;;;;3.77;2.20;;;;;;;;;;1848700;76;26268;-47
2022/03/25 06:23:13;;;;;;;3.10;2.10;;;;;;;;;;1850761;76;26275;-48
2022/03/25 06:25:41;;;;;;;2.92;2.08;;;;;;;;;;1849097;76;26316;-47
2022/03/25 06:28:08;;;;;;;4.03;1.87;;;;;;;;;;1848627;76;26268;-47
2022/03/25 06:30:37;;;;;;;2.70;2.20;;;;;;;;;;1849265;76;26311;-46
2022/03/25 06:33:05;;;;;;;6.75;1.90;;;;;;;;;;1843526;76;26229;-47
2022/03/25 06:35:33;;;;;;;5.42;2.33;;;;;;;;;;1831944;76;28254;-46
2022/03/25 06:38:00;;;;;;;2.12;1.90;;;;;;;;;;1846566;76;26921;-48
2022/03/25 06:40:28;;;;;;;2.22;2.02;;;;;;;;;;1847146;76;26242;-48
2022/03/25 06:42:57;;;;;;;2.72;2.00;;;;;;;;;;1857701;76;26245;-46
2022/03/25 06:45:25;;;;;;;2.00;1.90;;;;;;;;;;1845525;76;26342;-46
2022/03/25 06:47:53;;;;;;;3.15;2.02;;;;;;;;;;1846409;76;26739;-48
2022/03/25 06:50:21;;;;;;;1.90;1.80;;;;;;;;;;1849799;76;26682;-49
2022/03/25 06:52:49;;;;;;;2.10;1.95;;;;;;;;;;1856060;76;26703;-47
2022/03/25 06:55:17;;;;;;;3.12;2.05;;;;;;;;;;1855039;76;26318;-54
2022/03/25 06:57:44;;;;;;;1.75;1.75;;;;;;;;;;1849377;76;26236;-50
2022/03/25 07:00:12;;;;;;;2.00;1.90;;;;;;;;;;1854679;76;26708;-47
2022/03/25 07:02:43;;;;;;;2.45;1.87;;;;;;;;;;1849326;76;26394;-45
2022/03/25 07:05:11;;;;;;;2.45;1.90;;;;;;;;;;1845907;76;26263;-51
2022/03/25 07:07:40;;;;;;;2.37;1.70;;;;;;;;;;1852248;76;27518;-46
2022/03/25 07:10:11;;;;;;;3.77;1.95;;;;;;;;;;1852024;76;26788;-50
2022/03/25 07:12:43;;;;;;;2.95;1.90;;;;;;;;;;1810694;79;26306;-51
2022/03/25 07:15:11;;;;;;;1.90;1.80;;;;;;;;;;1853856;76;26727;-47
2022/03/25 07:17:41;;;;;;;2.10;1.80;;;;;;;;;;1833129;76;28327;-50
2022/03/25 07:20:08;;;;;;;2.00;1.80;;;;;;;;;;1846701;76;26343;-45
2022/03/25 07:22:36;;;;;;;1.98;1.87;;;;;;;;;;1845517;76;26711;-47
2022/03/25 07:25:04;;;;;;;1.95;1.85;;;;;;;;;;1848869;76;26339;-50
2022/03/25 07:27:32;;;;;;;1.70;1.60;;;;;;;;;;1845493;76;26747;-46
2022/03/25 07:29:59;;;;;;;2.00;1.92;;;;;;;;;;1851326;76;26366;-44
2022/03/25 07:32:27;;;;;;;1.75;1.65;;;;;;;;;;1846667;76;26398;-47
2022/03/25 07:34:54;;;;;;;1.70;1.60;;;;;;;;;;1846798;76;26870;-46
2022/03/25 07:37:21;;;;;;;3.30;1.60;;;;;;;;;;1842517;76;26777;-45
2022/03/25 07:39:49;;;;;;;2.45;1.70;;;;;;;;;;1840089;76;26286;-47
2022/03/25 07:42:16;;;;;;;1.77;1.70;;;;;;;;;;1827726;76;26263;-44
2022/03/25 07:44:44;;;;;;;1.80;1.67;;;;;;;;;;1850899;76;26736;-47
2022/03/25 07:47:13;;;;;;;1.70;1.60;;;;;;;;;;1849610;76;26525;-44
2022/03/25 07:49:41;;;;;;;1.50;1.50;;;;;;;;;;1831901;76;26299;-46
2022/03/25 07:52:10;;;;;;;1.60;1.52;;;;;;;;;;1836753;76;26292;-44
2022/03/25 07:54:38;;;;;;;2.55;1.60;;;;;;;;;;1845576;76;26785;-46
2022/03/25 07:57:06;;;;;;;1.90;1.80;;;;;;;;;;1857575;76;25820;-46
2022/03/25 07:59:33;;;;;;;1.60;1.60;;;;;;;;;;1840281;76;26694;-45
2022/03/25 08:02:00;;;;;;;1.85;1.75;;;;;;;;;;1863500;76;26260;-46
2022/03/25 08:04:28;;;;;;;1.98;1.87;;;;;;;;;;1859866;76;26320;-46
2022/03/25 08:06:55;;;;;;;1.82;1.72;;;;;;;;;;1853191;76;26271;-44
2022/03/25 08:09:23;;;;;;;1.90;1.80;;;;;;;;;;1855754;76;26600;-44
2022/03/25 08:11:50;;;;;;;1.62;1.62;;;;;;;;;;1860678;76;26220;-43
2022/03/25 08:14:18;;;;;;;1.62;1.60;;;;;;;;;;1845743;76;26247;-46
2022/03/25 08:16:46;;;;;;;2.42;1.98;;;;;;;;;;1850519;76;26864;-46
2022/03/25 08:19:13;;;;;;;1.87;1.77;;;;;;;;;;1861490;76;26260;-46
2022/03/25 08:21:41;;;;;;;1.87;1.70;;;;;;;;;;1827733;76;27112;-44
2022/03/25 08:29:38;;;;;;;1.70;1.60;;;;;;;;;;1849155;76;26288;-44
2022/03/25 08:32:06;;;;;;;1.62;1.60;;;;;;;;;;1844890;76;26302;-47
2022/03/25 08:34:33;;;;;;;1.70;1.70;;;;;;;;;;1859765;76;26365;-46
2022/03/25 08:37:01;;;;;;;2.85;1.70;;;;;;;;;;1854854;76;26287;-45
2022/03/25 08:39:28;;;;;;;1.62;1.62;;;;;;;;;;1840449;76;26348;-46
2022/03/25 08:41:55;;;;;;;1.80;1.70;;;;;;;;;;1860059;76;26345;-47
2022/03/25 08:44:23;;;;;;;1.87;1.77;;;;;;;;;;1851230;76;26282;-45
2022/03/25 08:46:50;;;;;;;1.50;1.50;;;;;;;;;;1855458;76;26808;-45
2022/03/25 08:49:18;;;;;;;1.87;1.77;;;;;;;;;;1856434;76;26325;-45
2022/03/25 08:51:45;;;;;;;1.40;1.40;;;;;;;;;;1837211;76;26274;-46
2022/03/25 08:54:14;;;;;;;1.57;1.57;;;;;;;;;;1857173;76;26201;-44
2022/03/25 08:56:41;;;;;;;1.87;1.72;;;;;;;;;;1853914;76;26280;-45
2022/03/25 08:59:09;;;;;;;1.50;1.50;;;;;;;;;;1859716;76;26268;-47
2022/03/25 09:01:36;;;;;;;1.82;1.70;;;;;;;;;;1841610;76;26282;-45
2022/03/25 09:04:04;;;;;;;1.55;1.50;;;;;;;;;;1844842;76;26366;-47
2022/03/25 09:06:31;;;;;;;1.80;1.70;;;;;;;;;;1854848;76;26674;-47
2022/03/25 09:08:59;;;;;;;1.70;1.62;;;;;;;;;;1868846;76;26536;-46
2022/03/25 09:11:26;;;;;;;1.80;1.70;;;;;;;;;;1855163;76;26276;-44
2022/03/25 09:13:55;;;;;;;1.70;1.70;;;;;;;;;;1837072;76;26740;-47
2022/03/25 09:16:22;;;;;;;1.47;1.47;;;;;;;;;;1844963;76;26269;-49
2022/03/25 09:18:49;;;;;;;1.60;1.60;;;;;;;;;;1866554;76;26300;-45
2022/03/25 09:21:17;;;;;;;1.82;1.72;;;;;;;;;;1866248;76;26284;-47
2022/03/25 09:23:44;;;;;;;1.45;1.45;;;;;;;;;;1847367;76;26255;-47
2022/03/25 09:26:11;;;;;;;1.75;1.52;;;;;;;;;;1879147;76;26365;-47
2022/03/25 09:28:39;;;;;;;1.60;1.60;;;;;;;;;;1867930;76;26280;-47
2022/03/25 09:31:06;;;;;;;1.50;1.50;;;;;;;;;;1851449;76;26394;-46
2022/03/25 09:33:34;;;;;;;1.70;1.60;;;;;;;;;;1867876;76;26751;-48
2022/03/25 09:36:01;;;;;;;1.80;1.70;;;;;;;;;;1846662;76;26320;-46
2022/03/25 09:38:29;;;;;;;1.50;1.50;;;;;;;;;;1837582;76;26279;-46
2022/03/25 09:40:58;;;;;;;1.40;1.40;;;;;;;;;;1855715;76;26686;-45
2022/03/25 09:43:25;;;;;;;1.60;1.60;;;;;;;;;;1858968;76;26324;-47
2022/03/25 09:45:53;;;;;;;1.50;1.50;;;;;;;;;;1868880;76;26346;-43
2022/03/25 09:48:20;;;;;;;1.67;1.60;;;;;;;;;;1854100;76;26204;-42
2022/03/25 09:50:47;;;;;;;1.70;1.60;;;;;;;;;;1860583;76;26238;-43
2022/03/25 09:53:14;;;;;;;1.90;1.60;;;;;;;;;;1848043;76;26224;-46
2022/03/25 09:55:44;;;;;;;1.70;1.60;;;;;;;;;;1834720;76;26815;-45
2022/03/25 09:58:18;;;;;;;1.60;1.60;;;;;;;;;;1829792;76;26220;-49
2022/03/25 10:00:41;;;;;;;1.37;1.37;;;;;;;;;;1867021;76;26359;-47
2022/03/25 10:03:09;;;;;;;1.60;1.60;;;;;;;;;;1842916;76;26336;-45
2022/03/25 10:05:36;;;;;;;1.52;1.52;;;;;;;;;;1834115;76;26318;-43
2022/03/25 10:08:04;;;;;;;1.60;1.60;;;;;;;;;;1846768;76;26389;-44
2022/03/25 10:10:31;;;;;;;1.77;1.67;;;;;;;;;;1851140;76;26245;-44
2022/03/25 10:13:00;;;;;;;1.45;1.45;;;;;;;;;;1862349;76;26740;-47
2022/03/25 10:15:29;;;;;;;1.75;1.70;;;;;;;;;;1838459;76;26539;-49
2022/03/25 10:18:06;;;;;;;1.70;1.70;;;;;;;;;;1849740;76;26258;-45
2022/03/25 10:20:31;;;;;;;1.77;1.70;;;;;;;;;;1843514;76;26813;-47
2022/03/25 10:22:59;;;;;;;1.55;1.55;;;;;;;;;;1870571;76;26200;-46
2022/03/25 10:25:44;;;;;;;1.60;1.60;;;;;;;;;;1867477;76;26258;-45
2022/03/25 10:28:18;;;;;;;1.70;1.70;;;;;;;;;;1857189;76;26294;-47
2022/03/25 10:30:47;;;;;;;1.60;1.50;;;;;;;;;;1861499;76;26303;-47
2022/03/25 10:33:25;;;;;;;1.70;1.60;;;;;;;;;;1849958;76;26323;-46
2022/03/25 10:36:00;;;;;;;1.70;1.70;;;;;;;;;;1863978;76;26368;-43
2022/03/25 10:38:29;;;;;;;1.72;1.65;;;;;;;;;;1837811;76;26224;-44
2022/03/25 10:40:57;;;;;;;1.70;1.60;;;;;;;;;;1839243;76;26296;-45
2022/03/25 10:43:25;;;;;;;1.57;1.57;;;;;;;;;;1854806;76;26357;-50
2022/03/25 10:45:52;;;;;;;1.90;1.80;;;;;;;;;;1860398;76;26311;-43
2022/03/25 10:48:21;;;;;;;1.50;1.50;;;;;;;;;;1853792;76;26254;-45
2022/03/25 10:50:58;;;;;;;1.60;1.60;;;;;;;;;;1849384;76;26771;-44
2022/03/25 10:53:27;;;;;;;1.67;1.67;;;;;;;;;;1854009;76;26916;-43
2022/03/25 10:56:10;;;;;;;1.40;1.40;;;;;;;;;;1853177;76;26904;-44
2022/03/25 10:58:35;;;;;;;1.82;1.72;;;;;;;;;;1824131;76;26287;-45
2022/03/25 11:01:03;;;;;;;1.50;1.40;;;;;;;;;;1838045;76;26355;-47
2022/03/25 11:03:31;;;;;;;1.62;1.62;;;;;;;;;;1833595;76;26874;-44
2022/03/25 11:05:59;;;;;;;1.77;1.67;;;;;;;;;;1856125;76;26407;-46
2022/03/25 11:08:26;;;;;;;1.60;1.60;;;;;;;;;;1846113;76;26359;-47
2022/03/25 11:10:53;;;;;;;1.60;1.60;;;;;;;;;;1847296;76;26345;-46
2022/03/25 11:13:22;;;;;;;1.60;1.60;;;;;;;;;;1850704;76;27360;-43
2022/03/25 11:15:50;;;;;;;1.72;1.70;;;;;;;;;;1850922;76;26334;-47
2022/03/25 11:18:20;;;;;;;1.87;1.77;;;;;;;;;;1853712;76;26665;-45
2022/03/25 11:20:47;;;;;;;1.65;1.65;;;;;;;;;;1856501;76;26522;-44
2022/03/25 11:23:16;;;;;;;1.70;1.70;;;;;;;;;;1855308;76;26263;-46
2022/03/25 11:25:48;;;;;;;1.70;1.60;;;;;;;;;;1831873;76;26293;-44
2022/03/25 11:28:20;;;;;;;1.95;1.85;;;;;;;;;;1848395;76;26267;-47
2022/03/25 11:31:00;;;;;;;1.80;1.70;;;;;;;;;;1877719;76;26245;-44
2022/03/25 11:33:28;;;;;;;1.75;1.67;;;;;;;;;;1856510;76;26293;-45
2022/03/25 11:36:09;;;;;;;1.90;1.80;;;;;;;;;;1838997;76;26737;-46
2022/03/25 11:38:36;;;;;;;1.52;1.52;;;;;;;;;;1787723;76;26278;-48
2022/03/25 11:41:05;;;;;;;1.72;1.70;;;;;;;;;;1852182;76;26325;-44
2022/03/25 11:43:33;;;;;;;1.75;1.65;;;;;;;;;;1856037;76;26263;-45
2022/03/25 11:46:02;;;;;;;1.60;1.50;;;;;;;;;;1870477;76;26269;-45
2022/03/25 11:48:30;;;;;;;1.90;1.80;;;;;;;;;;1876486;76;26256;-43
2022/03/25 11:50:59;;;;;;;1.60;1.60;;;;;;;;;;1875040;76;26736;-44
2022/03/25 11:53:28;;;;;;;1.80;1.80;;;;;;;;;;1875270;76;26295;-45
2022/03/25 11:56:06;;;;;;;1.92;1.82;;;;;;;;;;1857735;76;26267;-43
2022/03/25 11:58:33;;;;;;;1.77;1.72;;;;;;;;;;1819361;79;26343;-44
2022/03/25 12:01:02;;;;;;;1.72;1.62;;;;;;;;;;1798131;79;26813;-45
2022/03/25 12:03:43;;;;;;;2.08;1.90;;;;;;;;;;1774752;79;26341;-45
2022/03/25 12:06:14;;;;;;;1.70;1.70;;;;;;;;;;1807119;78;26428;-45
2022/03/25 12:08:43;;;;;;;1.90;1.80;;;;;;;;;;1775974;79;26291;-44
2022/03/25 12:11:11;;;;;;;1.70;1.70;;;;;;;;;;1766992;78;26855;-43
2022/03/25 12:13:55;;;;;;;1.67;1.67;;;;;;;;;;1840057;77;26359;-46
2022/03/25 12:16:40;;;;;;;1.80;1.70;;;;;;;;;;1815168;78;26345;-46
2022/03/25 12:19:09;;;;;;;1.92;1.82;;;;;;;;;;1824415;77;26284;-44
2022/03/25 12:21:41;;;;;;;1.80;1.70;;;;;;;;;;1838324;77;26277;-46
2022/03/25 12:24:12;;;;;;;1.80;1.70;;;;;;;;;;1820537;77;26325;-43
2022/03/25 12:26:37;;;;;;;2.00;1.90;;;;;;;;;;1829370;78;26347;-43
2022/03/25 12:29:08;;;;;;;2.08;1.98;;;;;;;;;;1835714;77;26268;-46
2022/03/25 12:31:35;;;;;;;2.15;2.00;;;;;;;;;;1838335;77;26364;-46
2022/03/25 12:34:05;;;;;;;1.60;1.60;;;;;;;;;;1828436;77;26364;-47
2022/03/25 12:36:34;;;;;;;1.80;1.70;;;;;;;;;;1829146;77;26815;-45
2022/03/25 12:39:01;;;;;;;1.87;1.77;;;;;;;;;;1814619;77;26719;-45
2022/03/25 12:41:30;;;;;;;2.00;1.90;;;;;;;;;;1834879;77;26326;-44
2022/03/25 12:43:58;;;;;;;1.70;1.60;;;;;;;;;;1834802;77;26274;-44
2022/03/25 12:46:26;;;;;;;1.70;1.60;;;;;;;;;;1828408;77;27133;-47
2022/03/25 12:48:55;;;;;;;1.85;1.75;;;;;;;;;;1820687;77;26727;-47
2022/03/25 12:51:22;;;;;;;1.77;1.67;;;;;;;;;;1820263;77;26844;-46
2022/03/25 12:53:50;;;;;;;1.80;1.70;;;;;;;;;;1820656;77;26372;-45
2022/03/25 12:56:17;;;;;;;1.77;1.67;;;;;;;;;;1820482;77;26267;-47
2022/03/25 12:58:45;;;;;;;1.80;1.70;;;;;;;;;;1820280;78;26279;-43
2022/03/25 13:01:17;;;;;;;2.00;1.90;;;;;;;;;;1824590;77;26283;-46
2022/03/25 13:03:46;;;;;;;1.82;1.72;;;;;;;;;;1830272;77;26388;-44
2022/03/25 13:06:14;;;;;;;1.80;1.70;;;;;;;;;;1820435;77;26332;-43
2022/03/25 13:08:42;;;;;;;2.17;2.05;;;;;;;;;;1822543;77;26291;-46
2022/03/25 13:11:10;;;;;;;1.72;1.62;;;;;;;;;;1829341;77;26660;-44
2022/03/25 13:13:38;;;;;;;1.72;1.70;;;;;;;;;;1803586;78;26297;-45
2022/03/25 13:16:09;;;;;;;1.60;1.50;;;;;;;;;;1816768;77;26723;-44
2022/03/25 13:18:38;;;;;;;1.60;1.50;;;;;;;;;;1839692;77;26317;-46
2022/03/25 13:21:06;;;;;;;1.90;1.80;;;;;;;;;;1822322;78;26681;-44
2022/03/25 13:23:34;;;;;;;1.85;1.82;;;;;;;;;;1841314;77;26330;-44
2022/03/25 13:26:04;;;;;;;2.00;1.50;;;;;;;;;;1836405;77;26357;-45
2022/03/25 13:28:35;;;;;;;1.70;1.60;;;;;;;;;;1836586;77;26371;-45
2022/03/25 13:31:04;;;;;;;1.60;1.60;;;;;;;;;;1838000;77;26274;-44
2022/03/25 13:33:34;;;;;;;1.77;1.67;;;;;;;;;;1822872;77;26298;-44
2022/03/25 13:36:03;;;;;;;1.80;1.70;;;;;;;;;;1823928;77;26263;-43
2022/03/25 13:38:38;;;;;;;1.87;1.77;;;;;;;;;;1822993;77;26286;-48
2022/03/25 13:41:09;;;;;;;1.80;1.70;;;;;;;;;;1813093;78;26307;-47
2022/03/25 13:43:38;;;;;;;1.60;1.50;;;;;;;;;;1802761;78;26318;-44
2022/03/25 13:46:07;;;;;;;1.70;1.50;;;;;;;;;;1829717;78;26358;-46
2022/03/25 13:48:42;;;;;;;1.70;1.60;;;;;;;;;;1811612;78;26843;-46
2022/03/25 13:51:27;;;;;;;1.40;1.40;;;;;;;;;;1802400;78;26286;-45
2022/03/25 13:54:02;;;;;;;1.40;1.35;;;;;;;;;;1798221;78;26671;-45
2022/03/25 13:56:35;;;;;;;1.40;1.40;;;;;;;;;;1827348;77;26309;-44
2022/03/25 13:59:03;;;;;;;1.65;1.55;;;;;;;;;;1826335;78;26556;-46
2022/03/25 14:01:41;;;;;;;1.50;1.40;;;;;;;;;;1826412;77;26305;-45
2022/03/25 14:04:12;;;;;;;1.55;1.50;;;;;;;;;;1826250;77;26939;-46
2022/03/25 14:06:41;;;;;;;1.80;1.70;;;;;;;;;;1816587;77;26275;-44
2022/03/25 14:09:26;;;;;;;1.52;1.42;;;;;;;;;;1820515;78;26368;-43
2022/03/25 14:11:53;;;;;;;1.40;1.40;;;;;;;;;;1820249;78;26365;-44
2022/03/25 14:14:36;;;;;;;1.55;1.55;;;;;;;;;;1822230;78;26376;-46
2022/03/25 14:17:12;;;;;;;1.67;1.57;;;;;;;;;;1818772;78;26263;-44
2022/03/25 14:19:39;;;;;;;1.67;1.50;;;;;;;;;;1829684;78;26268;-44
2022/03/25 14:22:08;;;;;;;1.42;1.40;;;;;;;;;;1831754;78;26291;-46
2022/03/25 14:24:40;;;;;;;1.42;1.40;;;;;;;;;;1820501;78;26381;-48
2022/03/25 14:27:11;;;;;;;1.50;1.50;;;;;;;;;;1824330;78;26763;-47
2022/03/25 14:29:39;;;;;;;1.30;1.30;;;;;;;;;;1827540;78;26289;-46
2022/03/25 14:32:07;;;;;;;1.50;1.50;;;;;;;;;;1822842;78;26229;-47
2022/03/25 14:34:35;;;;;;;1.40;1.40;;;;;;;;;;1824156;78;26244;-49
2022/03/25 14:37:03;;;;;;;1.57;1.50;;;;;;;;;;1824464;78;26360;-47
2022/03/25 14:39:30;;;;;;;1.40;1.40;;;;;;;;;;1823037;78;26349;-45
2022/03/25 14:41:58;;;;;;;1.40;1.40;;;;;;;;;;1822847;78;26788;-44
2022/03/25 14:44:25;;;;;;;1.50;1.50;;;;;;;;;;1827839;78;26268;-48
2022/03/25 14:46:52;;;;;;;1.37;1.37;;;;;;;;;;1832551;78;26286;-45
2022/03/25 14:49:20;;;;;;;1.32;1.32;;;;;;;;;;1827878;78;26274;-46
2022/03/25 14:51:47;;;;;;;1.40;1.40;;;;;;;;;;1827164;78;26337;-45
2022/03/25 14:54:15;;;;;;;1.55;1.55;;;;;;;;;;1827753;78;27218;-48
2022/03/25 14:56:43;;;;;;;1.35;1.35;;;;;;;;;;1821622;78;26322;-45